Weersoverzicht van METAR-stations binnen 150 km

EHRD - Rotterdam Airport
Afstand tot weerstation: ZO 28 km
Update: 24-01-2022 04:25
Zwaar bewolkt
Zwaar bewolkt
 Wind van ZZO
Wind: ZZO 6 km/h
Temperatuur: 5°C
Dauwpunt: 2°C
Luchtvochtigheid: 81%
Luchtdruk: 1034 hPa
Bewolking: Zwaar bewolkt
Zicht: 10 km
Details Bewolking: Zwaar bewolkt 701 m
2022/01/24 03:25 EHRD 240325Z AUTO 15003KT 120V180 9999 OVC023 05/02 Q1034 NOSIG
EHSC - Goeree Le Sea (Platform ter hoogte van Zeeland)
Afstand tot weerstation: WZW 36 km
Update: 24-01-2022 04:25

 Wind van ZO
Wind: ZO 9 km/h
Temperatuur: 5°C
Gevoelstemperatuur: 3°C
Dauwpunt: 0°C
Luchtvochtigheid: 70%
Luchtdruk: 1033 hPa
Zicht: 10 km
2022/01/24 03:25 EHSC 240325Z AUTO 14005KT 9999 ///////// 05/00 Q1033 W07/H4
 
EHAM - A'dam Schiphol
Afstand tot weerstation: ONO 51 km
Update: 24-01-2022 04:25
Overwegend bewolkt
Overwegend bewolkt
 Wind van ZZO
Wind: ZZO 4 km/h
Temperatuur: 5°C
Dauwpunt: 2°C
Luchtvochtigheid: 81%
Luchtdruk: 1034 hPa
Bewolking: Overwegend bewolkt
Zicht: 10 km
Details Bewolking: Overwegend bewolkt 701 m
2022/01/24 03:25 EHAM 240325Z 15002KT 9999 BKN023 05/02 Q1034 NOSIG
EHSA - Euro Platform (Ter hoogte van Zeeland)
Afstand tot weerstation: W 58 km
Update: 24-01-2022 04:25

 Wind van ZZO
Wind: ZZO 15 km/h
Temperatuur: 6°C
Gevoelstemperatuur: 3°C
Dauwpunt: 1°C
Luchtvochtigheid: 71%
Luchtdruk: 1033 hPa
Zicht: 10 km
2022/01/24 03:25 EHSA 240325Z AUTO 15008KT 9999 ///////// 06/01 Q1033 W08/H5
 
EHPG - P11-B Sea (Platform ter hoogte van Zuid Holland)
Afstand tot weerstation: NW 60 km
Update: 24-01-2022 04:25
Zwaar bewolkt
Zwaar bewolkt
 Wind van Z
Wind: Z 17 km/h
Temperatuur: 6°C
Gevoelstemperatuur: 3°C
Dauwpunt: 1°C
Luchtvochtigheid: 71%
Luchtdruk: 1033 hPa
Bewolking: Zwaar bewolkt
Zicht: 10 km
Details Bewolking: Zwaar bewolkt 610 m
2022/01/24 03:25 EHPG 240325Z AUTO 19009KT 130V250 9999 OVC020 06/01 Q1033
EHWO - Vliegveld Woensdrecht
Afstand tot weerstation: ZZO 65 km
Update: 24-01-2022 04:25
Zwaar bewolkt
Zwaar bewolkt
 Wind van ZZO
Wind: ZZO 6 km/h
Temperatuur: 4°C
Dauwpunt: 1°C
Luchtvochtigheid: 81%
Luchtdruk: 1034 hPa
Bewolking: Zwaar bewolkt
Zicht: 10 km
Details Bewolking: Zwaar bewolkt 640 m
2022/01/24 03:25 EHWO 240325Z AUTO 15003KT 120V220 9999 OVC021 04/01 Q1034 WHT
 
EHGR - Vliegveld Gilze-Rijen
Afstand tot weerstation: ZO 79 km
Update: 24-01-2022 04:25
Hei´g, Zwaar bewolkt
Hei´g, Zwaar bewolkt
 Wind van ZO
Wind: ZO 6 km/h
Temperatuur: 5°C
Dauwpunt: 1°C
Luchtvochtigheid: 76%
Luchtdruk: 1034 hPa
Overzicht: Hei´g
Bewolking: Zwaar bewolkt
Zicht: 9 km
Details Bewolking: Zwaar bewolkt 640 m
2022/01/24 03:25 EHGR 240325Z AUTO 13003KT 120V180 9000 HZ OVC021 05/01 Q1034 WHT
EHQE - Hoorn-A Sea (Platform ter hoogte van Noord Holland)
Afstand tot weerstation: N 103 km
Update: 24-01-2022 04:25
Zwaar bewolkt
Zwaar bewolkt
 Wind van ZW
Wind: ZW 15 km/h
Temperatuur: 6°C
Gevoelstemperatuur: 3°C
Dauwpunt: 2°C
Luchtvochtigheid: 76%
Luchtdruk: 1033 hPa
Bewolking: Zwaar bewolkt
Zicht: 10 km
Details Bewolking: Zwaar bewolkt 518 m
2022/01/24 03:25 EHQE 240325Z AUTO 23008KT 9999 OVC017 06/02 Q1033
 
EHKD - Marinebasis De Kooy (Den Helder)
Afstand tot weerstation: NNO 114 km
Update: 24-01-2022 04:25
Hei´g, Zwaar bewolkt
Hei´g, Zwaar bewolkt
 Wind van Z
Wind: Z 9 km/h
Temperatuur: 5°C
Gevoelstemperatuur: 3°C
Dauwpunt: 2°C
Luchtvochtigheid: 81%
Luchtdruk: 1034 hPa
Overzicht: Hei´g
Bewolking: Zwaar bewolkt
Zicht: 8 km
Details Bewolking: Zwaar bewolkt 640 m
2022/01/24 03:25 EHKD 240325Z AUTO 19005KT 8000 HZ OVC021 05/02 Q1034 WHT
EHEH - Vliegveld Eindhoven
Afstand tot weerstation: OZO 115 km
Update: 24-01-2022 04:25
Zwaar bewolkt
Zwaar bewolkt
 Wind van ZZO
Wind: ZZO 6 km/h
Temperatuur: 4°C
Dauwpunt: 1°C
Luchtvochtigheid: 81%
Luchtdruk: 1034 hPa
Bewolking: Zwaar bewolkt
Zicht: 10 km
Details Bewolking: Zwaar bewolkt 610 m
2022/01/24 03:25 EHEH 240325Z AUTO 16003KT 110V190 9999 OVC020 04/01 Q1034 WHT
 
EHVK - Vliegveld Volkel
Afstand tot weerstation: OZO 124 km
Update: 24-01-2022 04:25
Zwaar bewolkt
Zwaar bewolkt
 Wind van OZO
Wind: OZO 6 km/h
Temperatuur: 5°C
Dauwpunt: 1°C
Luchtvochtigheid: 76%
Luchtdruk: 1034 hPa
Bewolking: Zwaar bewolkt
Zicht: 10 km
Details Bewolking: Zwaar bewolkt 640 m
2022/01/24 03:25 EHVK 240325Z AUTO 12003KT 9999 OVC021 05/01 Q1034 WHT
EHDL - Vliegveld Deelen
Afstand tot weerstation: O 128 km
Update: 24-01-2022 04:25
Zwaar bewolkt
Zwaar bewolkt
 Wind van Z
Wind: Z 6 km/h
Temperatuur: 4°C
Dauwpunt: 2°C
Luchtvochtigheid: 87%
Luchtdruk: 1034 hPa
Bewolking: Zwaar bewolkt
Zicht: 10 km
Details Bewolking: Zwaar bewolkt 640 m
2022/01/24 03:25 EHDL 240325Z AUTO 17003KT 9999 OVC021 04/02 Q1034 WHT